<?xml version="1.0" encoding="UTF-8" standalone="yes"?>
<gpx version="1.1" creator="MagicMaps Scout" xmlns:xsi="http://www.w3.org/2001/XMLSchema-instance" xmlns="http://www.topografix.com/GPX/1/1" xsi:schemaLocation="http://www.topografix.com/GPX/1/1 http://www.topografix.com/GPX/1/1/gpx.xsd"><trk><name>Papenheim</name><trkseg><trkpt lat="48.93351" lon="10.97369"><ele>447</ele><time>2011-03-22T16:58:44Z</time></trkpt><trkpt lat="48.93366" lon="10.97373"><ele>445</ele><time>2011-03-22T16:58:57Z</time></trkpt><trkpt lat="48.93375" lon="10.97390"><ele>444</ele><time>2011-03-22T16:59:08Z</time></trkpt><trkpt lat="48.93379" lon="10.97395"><ele>444</ele><time>2011-03-22T16:59:11Z</time></trkpt><trkpt lat="48.93384" lon="10.97402"><ele>443</ele><time>2011-03-22T16:59:14Z</time></trkpt><trkpt lat="48.93388" lon="10.97405"><ele>443</ele><time>2011-03-22T16:59:17Z</time></trkpt><trkpt lat="48.93394" lon="10.97406"><ele>443</ele><time>2011-03-22T16:59:20Z</time></trkpt><trkpt lat="48.93399" lon="10.97409"><ele>442</ele><time>2011-03-22T16:59:23Z</time></trkpt><trkpt lat="48.93405" lon="10.97411"><ele>442</ele><time>2011-03-22T16:59:27Z</time></trkpt><trkpt lat="48.93418" lon="10.97412"><ele>441</ele><time>2011-03-22T16:59:35Z</time></trkpt><trkpt lat="48.93426" lon="10.97410"><ele>441</ele><time>2011-03-22T16:59:40Z</time></trkpt><trkpt lat="48.93438" lon="10.97416"><ele>440</ele><time>2011-03-22T16:59:46Z</time></trkpt><trkpt lat="48.93444" lon="10.97420"><ele>440</ele><time>2011-03-22T16:59:48Z</time></trkpt><trkpt lat="48.93451" lon="10.97426"><ele>439</ele><time>2011-03-22T16:59:51Z</time></trkpt><trkpt lat="48.93466" lon="10.97435"><ele>438</ele><time>2011-03-22T16:59:58Z</time></trkpt><trkpt lat="48.93480" lon="10.97435"><ele>437</ele><time>2011-03-22T17:00:04Z</time></trkpt><trkpt lat="48.93484" lon="10.97436"><ele>437</ele><time>2011-03-22T17:00:06Z</time></trkpt><trkpt lat="48.93499" lon="10.97441"><ele>437</ele><time>2011-03-22T17:00:14Z</time></trkpt><trkpt lat="48.93524" lon="10.97447"><ele>436</ele><time>2011-03-22T17:00:28Z</time></trkpt><trkpt lat="48.93544" lon="10.97450"><ele>436</ele><time>2011-03-22T17:00:38Z</time></trkpt><trkpt lat="48.93552" lon="10.97445"><ele>436</ele><time>2011-03-22T17:00:48Z</time></trkpt><trkpt lat="48.93180" lon="10.97705"><ele>427</ele><time>2011-03-22T17:00:51Z</time></trkpt><trkpt lat="48.93169" lon="10.97705"><ele>427</ele><time>2011-03-22T17:00:57Z</time></trkpt><trkpt lat="48.93155" lon="10.97709"><ele>427</ele><time>2011-03-22T17:01:09Z</time></trkpt><trkpt lat="48.93140" lon="10.97707"><ele>428</ele><time>2011-03-22T17:01:15Z</time></trkpt><trkpt lat="48.93109" lon="10.97701"><ele>428</ele><time>2011-03-22T17:01:22Z</time></trkpt><trkpt lat="48.93096" lon="10.97693"><ele>429</ele><time>2011-03-22T17:01:32Z</time></trkpt><trkpt lat="48.93088" lon="10.97684"><ele>429</ele><time>2011-03-22T17:01:41Z</time></trkpt><trkpt lat="48.93076" lon="10.97670"><ele>428</ele><time>2011-03-22T17:01:51Z</time></trkpt><trkpt lat="48.93067" lon="10.97653"><ele>428</ele><time>2011-03-22T17:01:58Z</time></trkpt><trkpt lat="48.93058" lon="10.97631"><ele>428</ele><time>2011-03-22T17:02:04Z</time></trkpt><trkpt lat="48.93047" lon="10.97613"><ele>428</ele><time>2011-03-22T17:02:11Z</time></trkpt><trkpt lat="48.93035" lon="10.97598"><ele>428</ele><time>2011-03-22T17:02:21Z</time></trkpt><trkpt lat="48.93011" lon="10.97575"><ele>428</ele><time>2011-03-22T17:02:32Z</time></trkpt><trkpt lat="48.93000" lon="10.97558"><ele>428</ele><time>2011-03-22T17:02:40Z</time></trkpt><trkpt lat="48.92959" lon="10.97498"><ele>431</ele><time>2011-03-22T17:03:04Z</time></trkpt><trkpt lat="48.92926" lon="10.97455"><ele>432</ele><time>2011-03-22T17:03:19Z</time></trkpt><trkpt lat="48.92914" lon="10.97442"><ele>432</ele><time>2011-03-22T17:03:26Z</time></trkpt><trkpt lat="48.92904" lon="10.97423"><ele>433</ele><time>2011-03-22T17:03:32Z</time></trkpt><trkpt lat="48.92903" lon="10.97420"><ele>433</ele><time>2011-03-22T17:03:33Z</time></trkpt><trkpt lat="48.92893" lon="10.97404"><ele>433</ele><time>2011-03-22T17:03:40Z</time></trkpt><trkpt lat="48.92884" lon="10.97386"><ele>433</ele><time>2011-03-22T17:03:46Z</time></trkpt><trkpt lat="48.92873" lon="10.97369"><ele>434</ele><time>2011-03-22T17:03:51Z</time></trkpt><trkpt lat="48.92863" lon="10.97350"><ele>435</ele><time>2011-03-22T17:03:58Z</time></trkpt><trkpt lat="48.92853" lon="10.97328"><ele>435</ele><time>2011-03-22T17:04:04Z</time></trkpt><trkpt lat="48.92830" lon="10.97263"><ele>438</ele><time>2011-03-22T17:04:28Z</time></trkpt><trkpt lat="48.92829" lon="10.97259"><ele>439</ele><time>2011-03-22T17:04:29Z</time></trkpt><trkpt lat="48.92815" lon="10.97201"><ele>441</ele><time>2011-03-22T17:04:47Z</time></trkpt><trkpt lat="48.92813" lon="10.97173"><ele>444</ele><time>2011-03-22T17:04:54Z</time></trkpt><trkpt lat="48.92807" lon="10.97151"><ele>444</ele><time>2011-03-22T17:05:00Z</time></trkpt><trkpt lat="48.92798" lon="10.97134"><ele>444</ele><time>2011-03-22T17:05:04Z</time></trkpt><trkpt lat="48.92779" lon="10.97103"><ele>444</ele><time>2011-03-22T17:05:14Z</time></trkpt><trkpt lat="48.92749" lon="10.97043"><ele>445</ele><time>2011-03-22T17:05:36Z</time></trkpt><trkpt lat="48.92744" lon="10.97023"><ele>446</ele><time>2011-03-22T17:05:43Z</time></trkpt><trkpt lat="48.92744" lon="10.96999"><ele>446</ele><time>2011-03-22T17:05:52Z</time></trkpt><trkpt lat="48.92740" lon="10.96977"><ele>446</ele><time>2011-03-22T17:06:00Z</time></trkpt><trkpt lat="48.92732" lon="10.96921"><ele>446</ele><time>2011-03-22T17:06:11Z</time></trkpt><trkpt lat="48.92731" lon="10.96912"><ele>446</ele><time>2011-03-22T17:06:12Z</time></trkpt><trkpt lat="48.92727" lon="10.96888"><ele>446</ele><time>2011-03-22T17:06:17Z</time></trkpt><trkpt lat="48.92721" lon="10.96868"><ele>446</ele><time>2011-03-22T17:06:23Z</time></trkpt><trkpt lat="48.92712" lon="10.96849"><ele>446</ele><time>2011-03-22T17:06:31Z</time></trkpt><trkpt lat="48.92709" lon="10.96823"><ele>447</ele><time>2011-03-22T17:06:37Z</time></trkpt><trkpt lat="48.92700" lon="10.96781"><ele>447</ele><time>2011-03-22T17:06:48Z</time></trkpt><trkpt lat="48.92690" lon="10.96765"><ele>446</ele><time>2011-03-22T17:06:53Z</time></trkpt><trkpt lat="48.92686" lon="10.96757"><ele>445</ele><time>2011-03-22T17:06:55Z</time></trkpt><trkpt lat="48.92677" lon="10.96738"><ele>443</ele><time>2011-03-22T17:07:04Z</time></trkpt><trkpt lat="48.92668" lon="10.96712"><ele>442</ele><time>2011-03-22T17:07:13Z</time></trkpt><trkpt lat="48.92656" lon="10.96700"><ele>441</ele><time>2011-03-22T17:07:18Z</time></trkpt><trkpt lat="48.92644" lon="10.96690"><ele>441</ele><time>2011-03-22T17:07:21Z</time></trkpt><trkpt lat="48.92638" lon="10.96683"><ele>440</ele><time>2011-03-22T17:07:23Z</time></trkpt><trkpt lat="48.92634" lon="10.96677"><ele>440</ele><time>2011-03-22T17:07:25Z</time></trkpt><trkpt lat="48.92627" lon="10.96659"><ele>438</ele><time>2011-03-22T17:07:32Z</time></trkpt><trkpt lat="48.92626" lon="10.96648"><ele>437</ele><time>2011-03-22T17:07:34Z</time></trkpt><trkpt lat="48.92624" lon="10.96638"><ele>436</ele><time>2011-03-22T17:07:36Z</time></trkpt><trkpt lat="48.92617" lon="10.96618"><ele>433</ele><time>2011-03-22T17:07:42Z</time></trkpt><trkpt lat="48.92611" lon="10.96616"><ele>432</ele><time>2011-03-22T17:07:45Z</time></trkpt><trkpt lat="48.92606" lon="10.96614"><ele>431</ele><time>2011-03-22T17:07:48Z</time></trkpt><trkpt lat="48.92611" lon="10.96612"><ele>427</ele><time>2011-03-22T17:08:03Z</time></trkpt><trkpt lat="48.92617" lon="10.96612"><ele>427</ele><time>2011-03-22T17:08:09Z</time></trkpt><trkpt lat="48.92623" lon="10.96614"><ele>426</ele><time>2011-03-22T17:08:15Z</time></trkpt><trkpt lat="48.92627" lon="10.96614"><ele>426</ele><time>2011-03-22T17:08:18Z</time></trkpt><trkpt lat="48.92632" lon="10.96614"><ele>425</ele><time>2011-03-22T17:08:22Z</time></trkpt><trkpt lat="48.92651" lon="10.96615"><ele>424</ele><time>2011-03-22T17:08:35Z</time></trkpt><trkpt lat="48.92657" lon="10.96613"><ele>423</ele><time>2011-03-22T17:08:39Z</time></trkpt><trkpt lat="48.92672" lon="10.96603"><ele>422</ele><time>2011-03-22T17:08:49Z</time></trkpt><trkpt lat="48.92678" lon="10.96594"><ele>422</ele><time>2011-03-22T17:08:51Z</time></trkpt><trkpt lat="48.92693" lon="10.96572"><ele>421</ele><time>2011-03-22T17:08:56Z</time></trkpt><trkpt lat="48.92698" lon="10.96562"><ele>421</ele><time>2011-03-22T17:08:57Z</time></trkpt><trkpt lat="48.92706" lon="10.96545"><ele>420</ele><time>2011-03-22T17:09:03Z</time></trkpt><trkpt lat="48.92707" lon="10.96527"><ele>420</ele><time>2011-03-22T17:09:07Z</time></trkpt><trkpt lat="48.92707" lon="10.96514"><ele>420</ele><time>2011-03-22T17:09:11Z</time></trkpt><trkpt lat="48.92705" lon="10.96491"><ele>419</ele><time>2011-03-22T17:09:16Z</time></trkpt><trkpt lat="48.92702" lon="10.96482"><ele>419</ele><time>2011-03-22T17:09:19Z</time></trkpt><trkpt lat="48.92699" lon="10.96476"><ele>419</ele><time>2011-03-22T17:09:22Z</time></trkpt><trkpt lat="48.92693" lon="10.96469"><ele>418</ele><time>2011-03-22T17:09:26Z</time></trkpt><trkpt lat="48.92683" lon="10.96458"><ele>418</ele><time>2011-03-22T17:09:31Z</time></trkpt><trkpt lat="48.92677" lon="10.96455"><ele>418</ele><time>2011-03-22T17:09:34Z</time></trkpt><trkpt lat="48.92671" lon="10.96454"><ele>417</ele><time>2011-03-22T17:09:37Z</time></trkpt><trkpt lat="48.92665" lon="10.96457"><ele>417</ele><time>2011-03-22T17:09:40Z</time></trkpt><trkpt lat="48.92659" lon="10.96460"><ele>417</ele><time>2011-03-22T17:09:43Z</time></trkpt><trkpt lat="48.92641" lon="10.96470"><ele>416</ele><time>2011-03-22T17:09:52Z</time></trkpt><trkpt lat="48.92624" lon="10.96484"><ele>416</ele><time>2011-03-22T17:10:00Z</time></trkpt><trkpt lat="48.92617" lon="10.96489"><ele>416</ele><time>2011-03-22T17:10:04Z</time></trkpt><trkpt lat="48.92609" lon="10.96490"><ele>416</ele><time>2011-03-22T17:10:07Z</time></trkpt><trkpt lat="48.92597" lon="10.96491"><ele>417</ele><time>2011-03-22T17:10:12Z</time></trkpt><trkpt lat="48.92592" lon="10.96493"><ele>417</ele><time>2011-03-22T17:10:15Z</time></trkpt><trkpt lat="48.92587" lon="10.96496"><ele>417</ele><time>2011-03-22T17:10:18Z</time></trkpt><trkpt lat="48.92575" lon="10.96508"><ele>418</ele><time>2011-03-22T17:10:25Z</time></trkpt><trkpt lat="48.92571" lon="10.96512"><ele>418</ele><time>2011-03-22T17:10:26Z</time></trkpt><trkpt lat="48.92564" lon="10.96518"><ele>419</ele><time>2011-03-22T17:10:29Z</time></trkpt><trkpt lat="48.92540" lon="10.96545"><ele>420</ele><time>2011-03-22T17:10:44Z</time></trkpt><trkpt lat="48.92530" lon="10.96562"><ele>420</ele><time>2011-03-22T17:10:50Z</time></trkpt><trkpt lat="48.92525" lon="10.96568"><ele>420</ele><time>2011-03-22T17:10:52Z</time></trkpt><trkpt lat="48.92517" lon="10.96574"><ele>420</ele><time>2011-03-22T17:10:55Z</time></trkpt><trkpt lat="48.92498" lon="10.96589"><ele>420</ele><time>2011-03-22T17:11:03Z</time></trkpt><trkpt lat="48.92485" lon="10.96603"><ele>420</ele><time>2011-03-22T17:11:11Z</time></trkpt><trkpt lat="48.92477" lon="10.96612"><ele>420</ele><time>2011-03-22T17:11:14Z</time></trkpt><trkpt lat="48.92472" lon="10.96621"><ele>420</ele><time>2011-03-22T17:11:17Z</time></trkpt><trkpt lat="48.92460" lon="10.96637"><ele>419</ele><time>2011-03-22T17:11:23Z</time></trkpt><trkpt lat="48.92454" lon="10.96642"><ele>419</ele><time>2011-03-22T17:11:26Z</time></trkpt><trkpt lat="48.92450" lon="10.96649"><ele>419</ele><time>2011-03-22T17:11:28Z</time></trkpt><trkpt lat="48.92437" lon="10.96669"><ele>419</ele><time>2011-03-22T17:11:34Z</time></trkpt><trkpt lat="48.92432" lon="10.96673"><ele>419</ele><time>2011-03-22T17:11:36Z</time></trkpt><trkpt lat="48.92418" lon="10.96691"><ele>419</ele><time>2011-03-22T17:11:44Z</time></trkpt><trkpt lat="48.92414" lon="10.96697"><ele>419</ele><time>2011-03-22T17:11:46Z</time></trkpt><trkpt lat="48.92401" lon="10.96718"><ele>419</ele><time>2011-03-22T17:11:54Z</time></trkpt><trkpt lat="48.92394" lon="10.96732"><ele>419</ele><time>2011-03-22T17:12:00Z</time></trkpt><trkpt lat="48.92386" lon="10.96747"><ele>419</ele><time>2011-03-22T17:12:05Z</time></trkpt><trkpt lat="48.92373" lon="10.96777"><ele>419</ele><time>2011-03-22T17:12:17Z</time></trkpt><trkpt lat="48.92369" lon="10.96789"><ele>419</ele><time>2011-03-22T17:12:21Z</time></trkpt><trkpt lat="48.92367" lon="10.96799"><ele>419</ele><time>2011-03-22T17:12:24Z</time></trkpt><trkpt lat="48.92359" lon="10.96824"><ele>419</ele><time>2011-03-22T17:12:31Z</time></trkpt><trkpt lat="48.92354" lon="10.96850"><ele>419</ele><time>2011-03-22T17:12:39Z</time></trkpt><trkpt lat="48.92353" lon="10.96860"><ele>419</ele><time>2011-03-22T17:12:41Z</time></trkpt><trkpt lat="48.92352" lon="10.96868"><ele>418</ele><time>2011-03-22T17:12:44Z</time></trkpt><trkpt lat="48.92349" lon="10.96878"><ele>418</ele><time>2011-03-22T17:12:46Z</time></trkpt><trkpt lat="48.92344" lon="10.96886"><ele>417</ele><time>2011-03-22T17:12:49Z</time></trkpt><trkpt lat="48.92340" lon="10.96891"><ele>417</ele><time>2011-03-22T17:12:52Z</time></trkpt><trkpt lat="48.92335" lon="10.96901"><ele>417</ele><time>2011-03-22T17:12:54Z</time></trkpt><trkpt lat="48.92333" lon="10.96905"><ele>417</ele><time>2011-03-22T17:12:56Z</time></trkpt><trkpt lat="48.92332" lon="10.96909"><ele>417</ele><time>2011-03-22T17:12:57Z</time></trkpt><trkpt lat="48.92330" lon="10.96916"><ele>417</ele><time>2011-03-22T17:12:59Z</time></trkpt><trkpt lat="48.92329" lon="10.96924"><ele>416</ele><time>2011-03-22T17:13:01Z</time></trkpt><trkpt lat="48.92326" lon="10.96933"><ele>416</ele><time>2011-03-22T17:13:04Z</time></trkpt><trkpt lat="48.92321" lon="10.96955"><ele>416</ele><time>2011-03-22T17:13:12Z</time></trkpt><trkpt lat="48.92319" lon="10.96964"><ele>416</ele><time>2011-03-22T17:13:15Z</time></trkpt><trkpt lat="48.92315" lon="10.96995"><ele>415</ele><time>2011-03-22T17:13:23Z</time></trkpt><trkpt lat="48.92315" lon="10.97004"><ele>415</ele><time>2011-03-22T17:13:25Z</time></trkpt><trkpt lat="48.92312" lon="10.97014"><ele>414</ele><time>2011-03-22T17:13:28Z</time></trkpt><trkpt lat="48.92303" lon="10.97040"><ele>414</ele><time>2011-03-22T17:13:35Z</time></trkpt><trkpt lat="48.92300" lon="10.97046"><ele>414</ele><time>2011-03-22T17:13:37Z</time></trkpt><trkpt lat="48.92299" lon="10.97055"><ele>414</ele><time>2011-03-22T17:13:39Z</time></trkpt><trkpt lat="48.92292" lon="10.97085"><ele>414</ele><time>2011-03-22T17:13:47Z</time></trkpt><trkpt lat="48.92291" lon="10.97097"><ele>414</ele><time>2011-03-22T17:13:50Z</time></trkpt><trkpt lat="48.92290" lon="10.97114"><ele>414</ele><time>2011-03-22T17:13:54Z</time></trkpt><trkpt lat="48.92289" lon="10.97125"><ele>413</ele><time>2011-03-22T17:13:57Z</time></trkpt><trkpt lat="48.92288" lon="10.97181"><ele>412</ele><time>2011-03-22T17:14:14Z</time></trkpt><trkpt lat="48.92288" lon="10.97190"><ele>412</ele><time>2011-03-22T17:14:17Z</time></trkpt><trkpt lat="48.92291" lon="10.97247"><ele>413</ele><time>2011-03-22T17:14:34Z</time></trkpt><trkpt lat="48.92293" lon="10.97257"><ele>413</ele><time>2011-03-22T17:14:37Z</time></trkpt><trkpt lat="48.92294" lon="10.97274"><ele>413</ele><time>2011-03-22T17:14:43Z</time></trkpt><trkpt lat="48.92296" lon="10.97303"><ele>413</ele><time>2011-03-22T17:14:53Z</time></trkpt><trkpt lat="48.92296" lon="10.97311"><ele>413</ele><time>2011-03-22T17:14:55Z</time></trkpt><trkpt lat="48.92295" lon="10.97439"><ele>411</ele><time>2011-03-22T17:15:27Z</time></trkpt><trkpt lat="48.92294" lon="10.97449"><ele>411</ele><time>2011-03-22T17:15:29Z</time></trkpt><trkpt lat="48.92288" lon="10.97569"><ele>410</ele><time>2011-03-22T17:16:01Z</time></trkpt><trkpt lat="48.92286" lon="10.97702"><ele>409</ele><time>2011-03-22T17:16:37Z</time></trkpt><trkpt lat="48.92277" lon="10.97809"><ele>408</ele><time>2011-03-22T17:17:07Z</time></trkpt><trkpt lat="48.92276" lon="10.97816"><ele>407</ele><time>2011-03-22T17:17:09Z</time></trkpt><trkpt lat="48.92256" lon="10.97932"><ele>408</ele><time>2011-03-22T17:17:42Z</time></trkpt><trkpt lat="48.92255" lon="10.97940"><ele>408</ele><time>2011-03-22T17:17:45Z</time></trkpt><trkpt lat="48.92256" lon="10.97952"><ele>408</ele><time>2011-03-22T17:17:50Z</time></trkpt><trkpt lat="48.92256" lon="10.97955"><ele>408</ele><time>2011-03-22T17:17:51Z</time></trkpt><trkpt lat="48.92258" lon="10.97960"><ele>409</ele><time>2011-03-22T17:17:53Z</time></trkpt><trkpt lat="48.92262" lon="10.97974"><ele>409</ele><time>2011-03-22T17:17:58Z</time></trkpt><trkpt lat="48.92264" lon="10.97980"><ele>409</ele><time>2011-03-22T17:18:00Z</time></trkpt><trkpt lat="48.92269" lon="10.97993"><ele>409</ele><time>2011-03-22T17:18:05Z</time></trkpt><trkpt lat="48.92280" lon="10.98019"><ele>410</ele><time>2011-03-22T17:18:16Z</time></trkpt><trkpt lat="48.92282" lon="10.98028"><ele>411</ele><time>2011-03-22T17:18:20Z</time></trkpt><trkpt lat="48.92288" lon="10.98050"><ele>412</ele><time>2011-03-22T17:18:28Z</time></trkpt><trkpt lat="48.92291" lon="10.98057"><ele>412</ele><time>2011-03-22T17:18:31Z</time></trkpt><trkpt lat="48.92293" lon="10.98064"><ele>413</ele><time>2011-03-22T17:18:34Z</time></trkpt><trkpt lat="48.92299" lon="10.98079"><ele>413</ele><time>2011-03-22T17:18:40Z</time></trkpt><trkpt lat="48.92309" lon="10.98105"><ele>414</ele><time>2011-03-22T17:18:47Z</time></trkpt><trkpt lat="48.92321" lon="10.98122"><ele>415</ele><time>2011-03-22T17:18:56Z</time></trkpt><trkpt lat="48.92329" lon="10.98134"><ele>416</ele><time>2011-03-22T17:19:02Z</time></trkpt><trkpt lat="48.92333" lon="10.98144"><ele>416</ele><time>2011-03-22T17:19:05Z</time></trkpt><trkpt lat="48.92343" lon="10.98159"><ele>417</ele><time>2011-03-22T17:19:10Z</time></trkpt><trkpt lat="48.92348" lon="10.98165"><ele>418</ele><time>2011-03-22T17:19:12Z</time></trkpt><trkpt lat="48.92353" lon="10.98171"><ele>418</ele><time>2011-03-22T17:19:14Z</time></trkpt><trkpt lat="48.92358" lon="10.98176"><ele>418</ele><time>2011-03-22T17:19:16Z</time></trkpt><trkpt lat="48.92369" lon="10.98193"><ele>419</ele><time>2011-03-22T17:19:22Z</time></trkpt><trkpt lat="48.92373" lon="10.98200"><ele>419</ele><time>2011-03-22T17:19:24Z</time></trkpt><trkpt lat="48.92376" lon="10.98206"><ele>419</ele><time>2011-03-22T17:19:26Z</time></trkpt><trkpt lat="48.92399" lon="10.98257"><ele>420</ele><time>2011-03-22T17:19:46Z</time></trkpt><trkpt lat="48.92404" lon="10.98265"><ele>419</ele><time>2011-03-22T17:19:49Z</time></trkpt><trkpt lat="48.92416" lon="10.98288"><ele>419</ele><time>2011-03-22T17:19:58Z</time></trkpt><trkpt lat="48.92425" lon="10.98306"><ele>418</ele><time>2011-03-22T17:20:03Z</time></trkpt><trkpt lat="48.92428" lon="10.98317"><ele>418</ele><time>2011-03-22T17:20:05Z</time></trkpt><trkpt lat="48.92430" lon="10.98326"><ele>418</ele><time>2011-03-22T17:20:07Z</time></trkpt><trkpt lat="48.92432" lon="10.98342"><ele>417</ele><time>2011-03-22T17:20:10Z</time></trkpt><trkpt lat="48.92432" lon="10.98354"><ele>416</ele><time>2011-03-22T17:20:12Z</time></trkpt><trkpt lat="48.92430" lon="10.98362"><ele>416</ele><time>2011-03-22T17:20:14Z</time></trkpt><trkpt lat="48.92426" lon="10.98371"><ele>415</ele><time>2011-03-22T17:20:17Z</time></trkpt><trkpt lat="48.92418" lon="10.98385"><ele>414</ele><time>2011-03-22T17:20:24Z</time></trkpt><trkpt lat="48.92414" lon="10.98388"><ele>413</ele><time>2011-03-22T17:20:29Z</time></trkpt><trkpt lat="48.92412" lon="10.98396"><ele>412</ele><time>2011-03-22T17:20:33Z</time></trkpt><trkpt lat="48.92412" lon="10.98402"><ele>412</ele><time>2011-03-22T17:20:35Z</time></trkpt><trkpt lat="48.92415" lon="10.98407"><ele>411</ele><time>2011-03-22T17:20:44Z</time></trkpt><trkpt lat="48.92416" lon="10.98411"><ele>410</ele><time>2011-03-22T17:20:53Z</time></trkpt><trkpt lat="48.92414" lon="10.98414"><ele>410</ele><time>2011-03-22T17:20:55Z</time></trkpt><trkpt lat="48.92410" lon="10.98420"><ele>410</ele><time>2011-03-22T17:20:58Z</time></trkpt><trkpt lat="48.92390" lon="10.98448"><ele>410</ele><time>2011-03-22T17:21:09Z</time></trkpt><trkpt lat="48.92388" lon="10.98450"><ele>410</ele><time>2011-03-22T17:21:10Z</time></trkpt><trkpt lat="48.92358" lon="10.98482"><ele>410</ele><time>2011-03-22T17:21:25Z</time></trkpt><trkpt lat="48.92353" lon="10.98490"><ele>410</ele><time>2011-03-22T17:21:28Z</time></trkpt><trkpt lat="48.92338" lon="10.98514"><ele>411</ele><time>2011-03-22T17:21:36Z</time></trkpt><trkpt lat="48.92335" lon="10.98520"><ele>411</ele><time>2011-03-22T17:21:38Z</time></trkpt><trkpt lat="48.92335" lon="10.98526"><ele>411</ele><time>2011-03-22T17:21:40Z</time></trkpt><trkpt lat="48.92335" lon="10.98535"><ele>411</ele><time>2011-03-22T17:21:43Z</time></trkpt><trkpt lat="48.92337" lon="10.98542"><ele>411</ele><time>2011-03-22T17:21:46Z</time></trkpt><trkpt lat="48.92337" lon="10.98545"><ele>411</ele><time>2011-03-22T17:21:47Z</time></trkpt><trkpt lat="48.92339" lon="10.98550"><ele>411</ele><time>2011-03-22T17:21:49Z</time></trkpt><trkpt lat="48.92342" lon="10.98555"><ele>411</ele><time>2011-03-22T17:21:51Z</time></trkpt><trkpt lat="48.92345" lon="10.98561"><ele>411</ele><time>2011-03-22T17:21:54Z</time></trkpt><trkpt lat="48.92348" lon="10.98563"><ele>411</ele><time>2011-03-22T17:21:56Z</time></trkpt><trkpt lat="48.92351" lon="10.98571"><ele>412</ele><time>2011-03-22T17:22:01Z</time></trkpt><trkpt lat="48.92361" lon="10.98596"><ele>412</ele><time>2011-03-22T17:22:13Z</time></trkpt><trkpt lat="48.92363" lon="10.98605"><ele>412</ele><time>2011-03-22T17:22:16Z</time></trkpt><trkpt lat="48.92372" lon="10.98635"><ele>413</ele><time>2011-03-22T17:22:23Z</time></trkpt><trkpt lat="48.92381" lon="10.98654"><ele>413</ele><time>2011-03-22T17:22:28Z</time></trkpt><trkpt lat="48.92392" lon="10.98668"><ele>413</ele><time>2011-03-22T17:22:33Z</time></trkpt><trkpt lat="48.92399" lon="10.98676"><ele>413</ele><time>2011-03-22T17:22:36Z</time></trkpt><trkpt lat="48.92402" lon="10.98684"><ele>413</ele><time>2011-03-22T17:22:39Z</time></trkpt><trkpt lat="48.92403" lon="10.98695"><ele>413</ele><time>2011-03-22T17:22:43Z</time></trkpt><trkpt lat="48.92403" lon="10.98699"><ele>413</ele><time>2011-03-22T17:22:44Z</time></trkpt><trkpt lat="48.92403" lon="10.98708"><ele>413</ele><time>2011-03-22T17:22:46Z</time></trkpt><trkpt lat="48.92404" lon="10.98716"><ele>413</ele><time>2011-03-22T17:22:48Z</time></trkpt><trkpt lat="48.92406" lon="10.98725"><ele>412</ele><time>2011-03-22T17:22:51Z</time></trkpt><trkpt lat="48.92405" lon="10.98734"><ele>412</ele><time>2011-03-22T17:22:54Z</time></trkpt><trkpt lat="48.92406" lon="10.98751"><ele>412</ele><time>2011-03-22T17:22:59Z</time></trkpt><trkpt lat="48.92407" lon="10.98761"><ele>412</ele><time>2011-03-22T17:23:02Z</time></trkpt><trkpt lat="48.92409" lon="10.98768"><ele>412</ele><time>2011-03-22T17:23:06Z</time></trkpt><trkpt lat="48.92413" lon="10.98773"><ele>412</ele><time>2011-03-22T17:23:09Z</time></trkpt><trkpt lat="48.92419" lon="10.98772"><ele>412</ele><time>2011-03-22T17:23:11Z</time></trkpt><trkpt lat="48.92425" lon="10.98768"><ele>412</ele><time>2011-03-22T17:23:14Z</time></trkpt><trkpt lat="48.92432" lon="10.98766"><ele>412</ele><time>2011-03-22T17:23:17Z</time></trkpt><trkpt lat="48.92450" lon="10.98758"><ele>412</ele><time>2011-03-22T17:23:26Z</time></trkpt><trkpt lat="48.92457" lon="10.98757"><ele>413</ele><time>2011-03-22T17:23:29Z</time></trkpt><trkpt lat="48.92486" lon="10.98754"><ele>413</ele><time>2011-03-22T17:23:41Z</time></trkpt><trkpt lat="48.92492" lon="10.98753"><ele>414</ele><time>2011-03-22T17:23:44Z</time></trkpt><trkpt lat="48.92500" lon="10.98748"><ele>413</ele><time>2011-03-22T17:23:48Z</time></trkpt><trkpt lat="48.92505" lon="10.98742"><ele>413</ele><time>2011-03-22T17:23:51Z</time></trkpt><trkpt lat="48.92521" lon="10.98726"><ele>414</ele><time>2011-03-22T17:24:01Z</time></trkpt><trkpt lat="48.92523" lon="10.98727"><ele>414</ele><time>2011-03-22T17:24:03Z</time></trkpt><trkpt lat="48.92529" lon="10.98722"><ele>414</ele><time>2011-03-22T17:24:08Z</time></trkpt><trkpt lat="48.92533" lon="10.98715"><ele>414</ele><time>2011-03-22T17:24:11Z</time></trkpt><trkpt lat="48.92536" lon="10.98709"><ele>414</ele><time>2011-03-22T17:24:13Z</time></trkpt><trkpt lat="48.92545" lon="10.98684"><ele>415</ele><time>2011-03-22T17:24:21Z</time></trkpt><trkpt lat="48.92548" lon="10.98676"><ele>415</ele><time>2011-03-22T17:24:23Z</time></trkpt><trkpt lat="48.92571" lon="10.98592"><ele>418</ele><time>2011-03-22T17:24:45Z</time></trkpt><trkpt lat="48.92572" lon="10.98583"><ele>418</ele><time>2011-03-22T17:24:48Z</time></trkpt><trkpt lat="48.92575" lon="10.98575"><ele>418</ele><time>2011-03-22T17:24:51Z</time></trkpt><trkpt lat="48.92581" lon="10.98573"><ele>419</ele><time>2011-03-22T17:24:53Z</time></trkpt><trkpt lat="48.92586" lon="10.98567"><ele>419</ele><time>2011-03-22T17:24:55Z</time></trkpt><trkpt lat="48.92590" lon="10.98560"><ele>419</ele><time>2011-03-22T17:24:57Z</time></trkpt><trkpt lat="48.92596" lon="10.98554"><ele>419</ele><time>2011-03-22T17:25:00Z</time></trkpt><trkpt lat="48.92605" lon="10.98543"><ele>419</ele><time>2011-03-22T17:25:04Z</time></trkpt><trkpt lat="48.92607" lon="10.98540"><ele>419</ele><time>2011-03-22T17:25:05Z</time></trkpt><trkpt lat="48.92613" lon="10.98531"><ele>418</ele><time>2011-03-22T17:25:08Z</time></trkpt><trkpt lat="48.92623" lon="10.98517"><ele>418</ele><time>2011-03-22T17:25:15Z</time></trkpt><trkpt lat="48.92627" lon="10.98509"><ele>418</ele><time>2011-03-22T17:25:18Z</time></trkpt><trkpt lat="48.92628" lon="10.98499"><ele>418</ele><time>2011-03-22T17:25:21Z</time></trkpt><trkpt lat="48.92628" lon="10.98490"><ele>418</ele><time>2011-03-22T17:25:24Z</time></trkpt><trkpt lat="48.92628" lon="10.98486"><ele>418</ele><time>2011-03-22T17:25:25Z</time></trkpt><trkpt lat="48.92629" lon="10.98478"><ele>418</ele><time>2011-03-22T17:25:28Z</time></trkpt><trkpt lat="48.92629" lon="10.98469"><ele>419</ele><time>2011-03-22T17:25:31Z</time></trkpt><trkpt lat="48.92629" lon="10.98458"><ele>419</ele><time>2011-03-22T17:25:33Z</time></trkpt><trkpt lat="48.92626" lon="10.98437"><ele>419</ele><time>2011-03-22T17:25:38Z</time></trkpt><trkpt lat="48.92624" lon="10.98427"><ele>419</ele><time>2011-03-22T17:25:40Z</time></trkpt><trkpt lat="48.92618" lon="10.98395"><ele>418</ele><time>2011-03-22T17:25:47Z</time></trkpt><trkpt lat="48.92617" lon="10.98391"><ele>418</ele><time>2011-03-22T17:25:48Z</time></trkpt><trkpt lat="48.92614" lon="10.98367"><ele>418</ele><time>2011-03-22T17:25:54Z</time></trkpt><trkpt lat="48.92613" lon="10.98347"><ele>417</ele><time>2011-03-22T17:25:58Z</time></trkpt><trkpt lat="48.92611" lon="10.98339"><ele>416</ele><time>2011-03-22T17:26:00Z</time></trkpt><trkpt lat="48.92610" lon="10.98335"><ele>416</ele><time>2011-03-22T17:26:01Z</time></trkpt><trkpt lat="48.92607" lon="10.98320"><ele>415</ele><time>2011-03-22T17:26:05Z</time></trkpt><trkpt lat="48.92606" lon="10.98316"><ele>415</ele><time>2011-03-22T17:26:06Z</time></trkpt><trkpt lat="48.92588" lon="10.98257"><ele>412</ele><time>2011-03-22T17:26:21Z</time></trkpt><trkpt lat="48.92587" lon="10.98253"><ele>412</ele><time>2011-03-22T17:26:22Z</time></trkpt><trkpt lat="48.92584" lon="10.98238"><ele>411</ele><time>2011-03-22T17:26:26Z</time></trkpt><trkpt lat="48.92582" lon="10.98231"><ele>411</ele><time>2011-03-22T17:26:28Z</time></trkpt><trkpt lat="48.92549" lon="10.98109"><ele>408</ele><time>2011-03-22T17:27:02Z</time></trkpt><trkpt lat="48.92548" lon="10.98105"><ele>408</ele><time>2011-03-22T17:27:03Z</time></trkpt><trkpt lat="48.92545" lon="10.98090"><ele>408</ele><time>2011-03-22T17:27:07Z</time></trkpt><trkpt lat="48.92544" lon="10.98086"><ele>408</ele><time>2011-03-22T17:27:08Z</time></trkpt><trkpt lat="48.92539" lon="10.98070"><ele>408</ele><time>2011-03-22T17:27:12Z</time></trkpt><trkpt lat="48.92538" lon="10.98066"><ele>408</ele><time>2011-03-22T17:27:13Z</time></trkpt><trkpt lat="48.92530" lon="10.98040"><ele>408</ele><time>2011-03-22T17:27:19Z</time></trkpt><trkpt lat="48.92529" lon="10.98036"><ele>408</ele><time>2011-03-22T17:27:20Z</time></trkpt><trkpt lat="48.92526" lon="10.98021"><ele>409</ele><time>2011-03-22T17:27:24Z</time></trkpt><trkpt lat="48.92525" lon="10.98017"><ele>409</ele><time>2011-03-22T17:27:25Z</time></trkpt><trkpt lat="48.92513" lon="10.97954"><ele>410</ele><time>2011-03-22T17:27:43Z</time></trkpt><trkpt lat="48.92512" lon="10.97951"><ele>410</ele><time>2011-03-22T17:27:44Z</time></trkpt><trkpt lat="48.92510" lon="10.97945"><ele>410</ele><time>2011-03-22T17:27:46Z</time></trkpt><trkpt lat="48.92506" lon="10.97929"><ele>410</ele><time>2011-03-22T17:27:51Z</time></trkpt><trkpt lat="48.92504" lon="10.97923"><ele>410</ele><time>2011-03-22T17:27:53Z</time></trkpt><trkpt lat="48.92503" lon="10.97916"><ele>410</ele><time>2011-03-22T17:27:55Z</time></trkpt><trkpt lat="48.92498" lon="10.97901"><ele>410</ele><time>2011-03-22T17:27:59Z</time></trkpt><trkpt lat="48.92497" lon="10.97891"><ele>410</ele><time>2011-03-22T17:28:02Z</time></trkpt><trkpt lat="48.92499" lon="10.97886"><ele>410</ele><time>2011-03-22T17:28:04Z</time></trkpt><trkpt lat="48.92503" lon="10.97882"><ele>410</ele><time>2011-03-22T17:28:06Z</time></trkpt><trkpt lat="48.92509" lon="10.97876"><ele>410</ele><time>2011-03-22T17:28:09Z</time></trkpt><trkpt lat="48.92513" lon="10.97873"><ele>410</ele><time>2011-03-22T17:28:11Z</time></trkpt><trkpt lat="48.92524" lon="10.97865"><ele>410</ele><time>2011-03-22T17:28:16Z</time></trkpt><trkpt lat="48.92532" lon="10.97857"><ele>410</ele><time>2011-03-22T17:28:20Z</time></trkpt><trkpt lat="48.92540" lon="10.97849"><ele>410</ele><time>2011-03-22T17:28:24Z</time></trkpt><trkpt lat="48.92542" lon="10.97846"><ele>410</ele><time>2011-03-22T17:28:25Z</time></trkpt><trkpt lat="48.92551" lon="10.97836"><ele>410</ele><time>2011-03-22T17:28:30Z</time></trkpt><trkpt lat="48.92553" lon="10.97833"><ele>410</ele><time>2011-03-22T17:28:31Z</time></trkpt><trkpt lat="48.92568" lon="10.97807"><ele>410</ele><time>2011-03-22T17:28:41Z</time></trkpt><trkpt lat="48.92569" lon="10.97805"><ele>410</ele><time>2011-03-22T17:28:42Z</time></trkpt><trkpt lat="48.92576" lon="10.97794"><ele>410</ele><time>2011-03-22T17:28:47Z</time></trkpt><trkpt lat="48.92578" lon="10.97789"><ele>410</ele><time>2011-03-22T17:28:49Z</time></trkpt><trkpt lat="48.92584" lon="10.97776"><ele>410</ele><time>2011-03-22T17:28:54Z</time></trkpt><trkpt lat="48.92587" lon="10.97770"><ele>410</ele><time>2011-03-22T17:28:57Z</time></trkpt><trkpt lat="48.92592" lon="10.97759"><ele>410</ele><time>2011-03-22T17:29:02Z</time></trkpt><trkpt lat="48.92599" lon="10.97745"><ele>410</ele><time>2011-03-22T17:29:08Z</time></trkpt><trkpt lat="48.92600" lon="10.97740"><ele>410</ele><time>2011-03-22T17:29:10Z</time></trkpt><trkpt lat="48.92609" lon="10.97711"><ele>411</ele><time>2011-03-22T17:29:21Z</time></trkpt><trkpt lat="48.92612" lon="10.97700"><ele>411</ele><time>2011-03-22T17:29:26Z</time></trkpt><trkpt lat="48.92613" lon="10.97695"><ele>411</ele><time>2011-03-22T17:29:28Z</time></trkpt><trkpt lat="48.92617" lon="10.97670"><ele>412</ele><time>2011-03-22T17:29:40Z</time></trkpt><trkpt lat="48.92618" lon="10.97667"><ele>412</ele><time>2011-03-22T17:29:43Z</time></trkpt><trkpt lat="48.92618" lon="10.97662"><ele>413</ele><time>2011-03-22T17:29:49Z</time></trkpt><trkpt lat="48.92617" lon="10.97653"><ele>414</ele><time>2011-03-22T17:29:58Z</time></trkpt><trkpt lat="48.92614" lon="10.97646"><ele>415</ele><time>2011-03-22T17:30:04Z</time></trkpt><trkpt lat="48.92612" lon="10.97637"><ele>416</ele><time>2011-03-22T17:30:08Z</time></trkpt><trkpt lat="48.92610" lon="10.97630"><ele>417</ele><time>2011-03-22T17:30:12Z</time></trkpt><trkpt lat="48.92606" lon="10.97625"><ele>418</ele><time>2011-03-22T17:30:16Z</time></trkpt><trkpt lat="48.92601" lon="10.97621"><ele>419</ele><time>2011-03-22T17:30:20Z</time></trkpt><trkpt lat="48.92593" lon="10.97608"><ele>421</ele><time>2011-03-22T17:30:26Z</time></trkpt><trkpt lat="48.92590" lon="10.97602"><ele>422</ele><time>2011-03-22T17:30:28Z</time></trkpt><trkpt lat="48.92586" lon="10.97596"><ele>423</ele><time>2011-03-22T17:30:31Z</time></trkpt><trkpt lat="48.92580" lon="10.97589"><ele>424</ele><time>2011-03-22T17:30:35Z</time></trkpt><trkpt lat="48.92558" lon="10.97570"><ele>427</ele><time>2011-03-22T17:30:47Z</time></trkpt><trkpt lat="48.92551" lon="10.97568"><ele>428</ele><time>2011-03-22T17:30:49Z</time></trkpt><trkpt lat="48.92545" lon="10.97565"><ele>429</ele><time>2011-03-22T17:30:51Z</time></trkpt><trkpt lat="48.92540" lon="10.97561"><ele>430</ele><time>2011-03-22T17:30:53Z</time></trkpt><trkpt lat="48.92533" lon="10.97553"><ele>432</ele><time>2011-03-22T17:30:56Z</time></trkpt><trkpt lat="48.92529" lon="10.97547"><ele>433</ele><time>2011-03-22T17:30:58Z</time></trkpt><trkpt lat="48.92519" lon="10.97528"><ele>435</ele><time>2011-03-22T17:31:05Z</time></trkpt><trkpt lat="48.92518" lon="10.97519"><ele>436</ele><time>2011-03-22T17:31:07Z</time></trkpt><trkpt lat="48.92516" lon="10.97511"><ele>437</ele><time>2011-03-22T17:31:09Z</time></trkpt><trkpt lat="48.92515" lon="10.97501"><ele>437</ele><time>2011-03-22T17:31:11Z</time></trkpt><trkpt lat="48.92513" lon="10.97491"><ele>438</ele><time>2011-03-22T17:31:13Z</time></trkpt><trkpt lat="48.92512" lon="10.97480"><ele>438</ele><time>2011-03-22T17:31:15Z</time></trkpt><trkpt lat="48.92510" lon="10.97473"><ele>438</ele><time>2011-03-22T17:31:17Z</time></trkpt><trkpt lat="48.92506" lon="10.97465"><ele>438</ele><time>2011-03-22T17:31:20Z</time></trkpt><trkpt lat="48.92502" lon="10.97456"><ele>438</ele><time>2011-03-22T17:31:22Z</time></trkpt><trkpt lat="48.92500" lon="10.97453"><ele>438</ele><time>2011-03-22T17:31:23Z</time></trkpt><trkpt lat="48.92497" lon="10.97450"><ele>438</ele><time>2011-03-22T17:31:24Z</time></trkpt><trkpt lat="48.92495" lon="10.97448"><ele>438</ele><time>2011-03-22T17:31:25Z</time></trkpt><trkpt lat="48.92493" lon="10.97448"><ele>438</ele><time>2011-03-22T17:31:26Z</time></trkpt><trkpt lat="48.92484" lon="10.97444"><ele>438</ele><time>2011-03-22T17:31:30Z</time></trkpt><trkpt lat="48.92480" lon="10.97442"><ele>438</ele><time>2011-03-22T17:31:32Z</time></trkpt><trkpt lat="48.92477" lon="10.97438"><ele>438</ele><time>2011-03-22T17:31:34Z</time></trkpt><trkpt lat="48.92471" lon="10.97429"><ele>438</ele><time>2011-03-22T17:31:39Z</time></trkpt><trkpt lat="48.92468" lon="10.97423"><ele>438</ele><time>2011-03-22T17:31:42Z</time></trkpt><trkpt lat="48.92462" lon="10.97410"><ele>438</ele><time>2011-03-22T17:31:47Z</time></trkpt><trkpt lat="48.92460" lon="10.97402"><ele>438</ele><time>2011-03-22T17:31:50Z</time></trkpt><trkpt lat="48.92458" lon="10.97393"><ele>438</ele><time>2011-03-22T17:31:53Z</time></trkpt><trkpt lat="48.92454" lon="10.97376"><ele>439</ele><time>2011-03-22T17:31:59Z</time></trkpt><trkpt lat="48.92451" lon="10.97368"><ele>439</ele><time>2011-03-22T17:32:02Z</time></trkpt><trkpt lat="48.92449" lon="10.97358"><ele>439</ele><time>2011-03-22T17:32:05Z</time></trkpt><trkpt lat="48.92448" lon="10.97348"><ele>439</ele><time>2011-03-22T17:32:08Z</time></trkpt><trkpt lat="48.92442" lon="10.97304"><ele>440</ele><time>2011-03-22T17:32:22Z</time></trkpt><trkpt lat="48.92440" lon="10.97292"><ele>441</ele><time>2011-03-22T17:32:26Z</time></trkpt><trkpt lat="48.92439" lon="10.97286"><ele>441</ele><time>2011-03-22T17:32:28Z</time></trkpt><trkpt lat="48.92439" lon="10.97275"><ele>441</ele><time>2011-03-22T17:32:32Z</time></trkpt><trkpt lat="48.92439" lon="10.97269"><ele>441</ele><time>2011-03-22T17:32:34Z</time></trkpt><trkpt lat="48.92441" lon="10.97238"><ele>442</ele><time>2011-03-22T17:32:44Z</time></trkpt><trkpt lat="48.92440" lon="10.97229"><ele>442</ele><time>2011-03-22T17:32:47Z</time></trkpt><trkpt lat="48.92439" lon="10.97171"><ele>443</ele><time>2011-03-22T17:33:05Z</time></trkpt><trkpt lat="48.92441" lon="10.97164"><ele>443</ele><time>2011-03-22T17:33:09Z</time></trkpt><trkpt lat="48.92443" lon="10.97151"><ele>444</ele><time>2011-03-22T17:33:18Z</time></trkpt><trkpt lat="48.92445" lon="10.97141"><ele>444</ele><time>2011-03-22T17:33:27Z</time></trkpt><trkpt lat="48.92447" lon="10.97139"><ele>444</ele><time>2011-03-22T17:33:32Z</time></trkpt><trkpt lat="48.92452" lon="10.97141"><ele>444</ele><time>2011-03-22T17:33:36Z</time></trkpt><trkpt lat="48.92457" lon="10.97141"><ele>444</ele><time>2011-03-22T17:33:39Z</time></trkpt><trkpt lat="48.92463" lon="10.97141"><ele>444</ele><time>2011-03-22T17:33:44Z</time></trkpt><trkpt lat="48.92463" lon="10.97140"><ele>445</ele><time>2011-03-22T17:33:45Z</time></trkpt><trkpt lat="48.92468" lon="10.97137"><ele>445</ele><time>2011-03-22T17:33:51Z</time></trkpt><trkpt lat="48.92478" lon="10.97129"><ele>446</ele><time>2011-03-22T17:34:02Z</time></trkpt><trkpt lat="48.92478" lon="10.97126"><ele>446</ele><time>2011-03-22T17:34:05Z</time></trkpt><trkpt lat="48.92480" lon="10.97123"><ele>446</ele><time>2011-03-22T17:34:08Z</time></trkpt><trkpt lat="48.92481" lon="10.97119"><ele>447</ele><time>2011-03-22T17:34:12Z</time></trkpt><trkpt lat="48.92486" lon="10.97119"><ele>449</ele><time>2011-03-22T17:34:32Z</time></trkpt><trkpt lat="48.92490" lon="10.97116"><ele>449</ele><time>2011-03-22T17:34:33Z</time></trkpt><trkpt lat="48.92495" lon="10.97116"><ele>449</ele><time>2011-03-22T17:34:39Z</time></trkpt><trkpt lat="48.92499" lon="10.97117"><ele>450</ele><time>2011-03-22T17:34:41Z</time></trkpt><trkpt lat="48.92506" lon="10.97119"><ele>450</ele><time>2011-03-22T17:34:45Z</time></trkpt><trkpt lat="48.92511" lon="10.97117"><ele>451</ele><time>2011-03-22T17:34:49Z</time></trkpt><trkpt lat="48.92521" lon="10.97113"><ele>452</ele><time>2011-03-22T17:34:58Z</time></trkpt><trkpt lat="48.92523" lon="10.97111"><ele>453</ele><time>2011-03-22T17:35:00Z</time></trkpt><trkpt lat="48.92535" lon="10.97100"><ele>455</ele><time>2011-03-22T17:35:13Z</time></trkpt><trkpt lat="48.92540" lon="10.97094"><ele>455</ele><time>2011-03-22T17:35:17Z</time></trkpt><trkpt lat="48.92541" lon="10.97093"><ele>456</ele><time>2011-03-22T17:35:18Z</time></trkpt><trkpt lat="48.92542" lon="10.97089"><ele>456</ele><time>2011-03-22T17:35:20Z</time></trkpt><trkpt lat="48.92544" lon="10.97085"><ele>456</ele><time>2011-03-22T17:35:22Z</time></trkpt><trkpt lat="48.92550" lon="10.97071"><ele>458</ele><time>2011-03-22T17:35:31Z</time></trkpt><trkpt lat="48.92552" lon="10.97068"><ele>458</ele><time>2011-03-22T17:35:33Z</time></trkpt><trkpt lat="48.92554" lon="10.97064"><ele>459</ele><time>2011-03-22T17:35:36Z</time></trkpt><trkpt lat="48.92556" lon="10.97056"><ele>460</ele><time>2011-03-22T17:35:41Z</time></trkpt><trkpt lat="48.92557" lon="10.97048"><ele>461</ele><time>2011-03-22T17:35:46Z</time></trkpt><trkpt lat="48.92558" lon="10.97044"><ele>462</ele><time>2011-03-22T17:35:49Z</time></trkpt><trkpt lat="48.92558" lon="10.97040"><ele>462</ele><time>2011-03-22T17:35:52Z</time></trkpt><trkpt lat="48.92558" lon="10.97035"><ele>463</ele><time>2011-03-22T17:35:56Z</time></trkpt><trkpt lat="48.92560" lon="10.97027"><ele>464</ele><time>2011-03-22T17:36:01Z</time></trkpt><trkpt lat="48.92561" lon="10.97022"><ele>465</ele><time>2011-03-22T17:36:03Z</time></trkpt><trkpt lat="48.92564" lon="10.97013"><ele>466</ele><time>2011-03-22T17:36:07Z</time></trkpt><trkpt lat="48.92566" lon="10.97003"><ele>466</ele><time>2011-03-22T17:36:10Z</time></trkpt><trkpt lat="48.92567" lon="10.96995"><ele>467</ele><time>2011-03-22T17:36:12Z</time></trkpt><trkpt lat="48.92569" lon="10.96985"><ele>467</ele><time>2011-03-22T17:36:15Z</time></trkpt><trkpt lat="48.92575" lon="10.96958"><ele>469</ele><time>2011-03-22T17:36:24Z</time></trkpt><trkpt lat="48.92579" lon="10.96951"><ele>470</ele><time>2011-03-22T17:36:27Z</time></trkpt><trkpt lat="48.92585" lon="10.96944"><ele>471</ele><time>2011-03-22T17:36:31Z</time></trkpt><trkpt lat="48.92586" lon="10.96936"><ele>471</ele><time>2011-03-22T17:36:35Z</time></trkpt><trkpt lat="48.92586" lon="10.96929"><ele>472</ele><time>2011-03-22T17:36:39Z</time></trkpt><trkpt lat="48.92588" lon="10.96920"><ele>473</ele><time>2011-03-22T17:36:43Z</time></trkpt><trkpt lat="48.92591" lon="10.96912"><ele>473</ele><time>2011-03-22T17:36:46Z</time></trkpt><trkpt lat="48.92593" lon="10.96902"><ele>473</ele><time>2011-03-22T17:36:49Z</time></trkpt><trkpt lat="48.92595" lon="10.96878"><ele>472</ele><time>2011-03-22T17:36:56Z</time></trkpt><trkpt lat="48.92595" lon="10.96870"><ele>472</ele><time>2011-03-22T17:36:59Z</time></trkpt><trkpt lat="48.92597" lon="10.96861"><ele>471</ele><time>2011-03-22T17:37:02Z</time></trkpt><trkpt lat="48.92600" lon="10.96841"><ele>471</ele><time>2011-03-22T17:37:07Z</time></trkpt><trkpt lat="48.92598" lon="10.96832"><ele>471</ele><time>2011-03-22T17:37:10Z</time></trkpt><trkpt lat="48.92598" lon="10.96822"><ele>472</ele><time>2011-03-22T17:37:14Z</time></trkpt><trkpt lat="48.92598" lon="10.96808"><ele>471</ele><time>2011-03-22T17:37:18Z</time></trkpt><trkpt lat="48.92596" lon="10.96797"><ele>470</ele><time>2011-03-22T17:37:20Z</time></trkpt><trkpt lat="48.92592" lon="10.96769"><ele>468</ele><time>2011-03-22T17:37:27Z</time></trkpt><trkpt lat="48.92592" lon="10.96761"><ele>467</ele><time>2011-03-22T17:37:31Z</time></trkpt><trkpt lat="48.92594" lon="10.96741"><ele>465</ele><time>2011-03-22T17:37:39Z</time></trkpt><trkpt lat="48.92597" lon="10.96735"><ele>464</ele><time>2011-03-22T17:37:43Z</time></trkpt><trkpt lat="48.92600" lon="10.96727"><ele>463</ele><time>2011-03-22T17:37:48Z</time></trkpt><trkpt lat="48.92601" lon="10.96718"><ele>461</ele><time>2011-03-22T17:37:53Z</time></trkpt><trkpt lat="48.92606" lon="10.96714"><ele>458</ele><time>2011-03-22T17:38:03Z</time></trkpt><trkpt lat="48.92610" lon="10.96717"><ele>456</ele><time>2011-03-22T17:38:08Z</time></trkpt><trkpt lat="48.92618" lon="10.96716"><ele>454</ele><time>2011-03-22T17:38:23Z</time></trkpt><trkpt lat="48.92620" lon="10.96717"><ele>454</ele><time>2011-03-22T17:38:29Z</time></trkpt><trkpt lat="48.92624" lon="10.96723"><ele>453</ele><time>2011-03-22T17:38:32Z</time></trkpt><trkpt lat="48.92628" lon="10.96730"><ele>452</ele><time>2011-03-22T17:38:35Z</time></trkpt><trkpt lat="48.92632" lon="10.96736"><ele>451</ele><time>2011-03-22T17:38:38Z</time></trkpt><trkpt lat="48.92636" lon="10.96742"><ele>450</ele><time>2011-03-22T17:38:41Z</time></trkpt><trkpt lat="48.92639" lon="10.96750"><ele>450</ele><time>2011-03-22T17:38:43Z</time></trkpt><trkpt lat="48.92641" lon="10.96759"><ele>449</ele><time>2011-03-22T17:38:46Z</time></trkpt><trkpt lat="48.92645" lon="10.96763"><ele>448</ele><time>2011-03-22T17:38:51Z</time></trkpt><trkpt lat="48.92649" lon="10.96758"><ele>447</ele><time>2011-03-22T17:38:55Z</time></trkpt><trkpt lat="48.92654" lon="10.96756"><ele>447</ele><time>2011-03-22T17:38:59Z</time></trkpt><trkpt lat="48.92659" lon="10.96752"><ele>447</ele><time>2011-03-22T17:39:05Z</time></trkpt><trkpt lat="48.92663" lon="10.96759"><ele>447</ele><time>2011-03-22T17:39:12Z</time></trkpt><trkpt lat="48.92665" lon="10.96751"><ele>447</ele><time>2011-03-22T17:39:20Z</time></trkpt><trkpt lat="48.92668" lon="10.96738"><ele>447</ele><time>2011-03-22T17:39:24Z</time></trkpt><trkpt lat="48.92669" lon="10.96735"><ele>446</ele><time>2011-03-22T17:39:25Z</time></trkpt><trkpt lat="48.92671" lon="10.96732"><ele>446</ele><time>2011-03-22T17:39:28Z</time></trkpt><trkpt lat="48.92676" lon="10.96736"><ele>444</ele><time>2011-03-22T17:39:34Z</time></trkpt><trkpt lat="48.92680" lon="10.96743"><ele>443</ele><time>2011-03-22T17:39:38Z</time></trkpt><trkpt lat="48.92683" lon="10.96749"><ele>442</ele><time>2011-03-22T17:39:41Z</time></trkpt><trkpt lat="48.92688" lon="10.96765"><ele>441</ele><time>2011-03-22T17:39:47Z</time></trkpt><trkpt lat="48.92690" lon="10.96773"><ele>441</ele><time>2011-03-22T17:39:50Z</time></trkpt><trkpt lat="48.92708" lon="10.96835"><ele>440</ele><time>2011-03-22T17:40:12Z</time></trkpt><trkpt lat="48.92710" lon="10.96845"><ele>440</ele><time>2011-03-22T17:40:14Z</time></trkpt><trkpt lat="48.92717" lon="10.96898"><ele>439</ele><time>2011-03-22T17:40:29Z</time></trkpt><trkpt lat="48.92717" lon="10.96908"><ele>439</ele><time>2011-03-22T17:40:32Z</time></trkpt><trkpt lat="48.92719" lon="10.96915"><ele>439</ele><time>2011-03-22T17:40:34Z</time></trkpt><trkpt lat="48.92721" lon="10.96924"><ele>438</ele><time>2011-03-22T17:40:37Z</time></trkpt><trkpt lat="48.92729" lon="10.96952"><ele>438</ele><time>2011-03-22T17:40:47Z</time></trkpt><trkpt lat="48.92731" lon="10.96961"><ele>438</ele><time>2011-03-22T17:40:49Z</time></trkpt><trkpt lat="48.92736" lon="10.96971"><ele>438</ele><time>2011-03-22T17:40:51Z</time></trkpt><trkpt lat="48.92739" lon="10.96976"><ele>438</ele><time>2011-03-22T17:40:52Z</time></trkpt><trkpt lat="48.92746" lon="10.96994"><ele>438</ele><time>2011-03-22T17:40:57Z</time></trkpt><trkpt lat="48.92747" lon="10.97002"><ele>439</ele><time>2011-03-22T17:40:59Z</time></trkpt><trkpt lat="48.92747" lon="10.97010"><ele>439</ele><time>2011-03-22T17:41:01Z</time></trkpt><trkpt lat="48.92748" lon="10.97020"><ele>439</ele><time>2011-03-22T17:41:04Z</time></trkpt><trkpt lat="48.92749" lon="10.97022"><ele>439</ele><time>2011-03-22T17:41:05Z</time></trkpt><trkpt lat="48.92751" lon="10.97031"><ele>439</ele><time>2011-03-22T17:41:09Z</time></trkpt><trkpt lat="48.92756" lon="10.97042"><ele>439</ele><time>2011-03-22T17:41:14Z</time></trkpt><trkpt lat="48.92765" lon="10.97070"><ele>439</ele><time>2011-03-22T17:41:22Z</time></trkpt><trkpt lat="48.92765" lon="10.97081"><ele>439</ele><time>2011-03-22T17:41:24Z</time></trkpt><trkpt lat="48.92768" lon="10.97110"><ele>440</ele><time>2011-03-22T17:41:35Z</time></trkpt><trkpt lat="48.92772" lon="10.97127"><ele>440</ele><time>2011-03-22T17:41:40Z</time></trkpt><trkpt lat="48.92773" lon="10.97136"><ele>440</ele><time>2011-03-22T17:41:42Z</time></trkpt><trkpt lat="48.92774" lon="10.97146"><ele>440</ele><time>2011-03-22T17:41:45Z</time></trkpt><trkpt lat="48.92777" lon="10.97156"><ele>440</ele><time>2011-03-22T17:41:48Z</time></trkpt><trkpt lat="48.92786" lon="10.97182"><ele>439</ele><time>2011-03-22T17:41:56Z</time></trkpt><trkpt lat="48.92792" lon="10.97201"><ele>439</ele><time>2011-03-22T17:42:02Z</time></trkpt><trkpt lat="48.92803" lon="10.97228"><ele>439</ele><time>2011-03-22T17:42:10Z</time></trkpt><trkpt lat="48.92807" lon="10.97242"><ele>439</ele><time>2011-03-22T17:42:14Z</time></trkpt><trkpt lat="48.92814" lon="10.97263"><ele>438</ele><time>2011-03-22T17:42:20Z</time></trkpt><trkpt lat="48.92818" lon="10.97273"><ele>438</ele><time>2011-03-22T17:42:23Z</time></trkpt><trkpt lat="48.92822" lon="10.97287"><ele>438</ele><time>2011-03-22T17:42:28Z</time></trkpt><trkpt lat="48.92824" lon="10.97294"><ele>438</ele><time>2011-03-22T17:42:31Z</time></trkpt><trkpt lat="48.92826" lon="10.97301"><ele>438</ele><time>2011-03-22T17:42:34Z</time></trkpt><trkpt lat="48.92830" lon="10.97309"><ele>438</ele><time>2011-03-22T17:42:37Z</time></trkpt><trkpt lat="48.92839" lon="10.97329"><ele>437</ele><time>2011-03-22T17:42:44Z</time></trkpt><trkpt lat="48.92841" lon="10.97337"><ele>437</ele><time>2011-03-22T17:42:46Z</time></trkpt><trkpt lat="48.92844" lon="10.97344"><ele>437</ele><time>2011-03-22T17:42:48Z</time></trkpt><trkpt lat="48.92847" lon="10.97353"><ele>437</ele><time>2011-03-22T17:42:51Z</time></trkpt><trkpt lat="48.92853" lon="10.97359"><ele>437</ele><time>2011-03-22T17:42:54Z</time></trkpt><trkpt lat="48.92857" lon="10.97367"><ele>436</ele><time>2011-03-22T17:42:56Z</time></trkpt><trkpt lat="48.92861" lon="10.97374"><ele>436</ele><time>2011-03-22T17:42:58Z</time></trkpt><trkpt lat="48.92884" lon="10.97420"><ele>435</ele><time>2011-03-22T17:43:17Z</time></trkpt><trkpt lat="48.92890" lon="10.97435"><ele>435</ele><time>2011-03-22T17:43:21Z</time></trkpt><trkpt lat="48.92895" lon="10.97446"><ele>435</ele><time>2011-03-22T17:43:25Z</time></trkpt><trkpt lat="48.92895" lon="10.97456"><ele>435</ele><time>2011-03-22T17:43:30Z</time></trkpt><trkpt lat="48.92896" lon="10.97463"><ele>435</ele><time>2011-03-22T17:43:32Z</time></trkpt><trkpt lat="48.92899" lon="10.97472"><ele>435</ele><time>2011-03-22T17:43:34Z</time></trkpt><trkpt lat="48.92904" lon="10.97479"><ele>435</ele><time>2011-03-22T17:43:36Z</time></trkpt><trkpt lat="48.92910" lon="10.97484"><ele>435</ele><time>2011-03-22T17:43:39Z</time></trkpt><trkpt lat="48.92915" lon="10.97484"><ele>435</ele><time>2011-03-22T17:43:42Z</time></trkpt><trkpt lat="48.92929" lon="10.97475"><ele>435</ele><time>2011-03-22T17:43:51Z</time></trkpt><trkpt lat="48.92933" lon="10.97472"><ele>435</ele><time>2011-03-22T17:43:53Z</time></trkpt><trkpt lat="48.92939" lon="10.97464"><ele>435</ele><time>2011-03-22T17:43:55Z</time></trkpt><trkpt lat="48.92945" lon="10.97454"><ele>434</ele><time>2011-03-22T17:43:57Z</time></trkpt><trkpt lat="48.92959" lon="10.97434"><ele>433</ele><time>2011-03-22T17:44:03Z</time></trkpt><trkpt lat="48.92967" lon="10.97426"><ele>432</ele><time>2011-03-22T17:44:07Z</time></trkpt><trkpt lat="48.92971" lon="10.97419"><ele>432</ele><time>2011-03-22T17:44:09Z</time></trkpt><trkpt lat="48.92979" lon="10.97408"><ele>431</ele><time>2011-03-22T17:44:13Z</time></trkpt><trkpt lat="48.92987" lon="10.97398"><ele>430</ele><time>2011-03-22T17:44:18Z</time></trkpt><trkpt lat="48.92996" lon="10.97384"><ele>430</ele><time>2011-03-22T17:44:22Z</time></trkpt><trkpt lat="48.93000" lon="10.97377"><ele>429</ele><time>2011-03-22T17:44:24Z</time></trkpt><trkpt lat="48.93005" lon="10.97366"><ele>429</ele><time>2011-03-22T17:44:30Z</time></trkpt><trkpt lat="48.93016" lon="10.97346"><ele>428</ele><time>2011-03-22T17:44:36Z</time></trkpt><trkpt lat="48.93021" lon="10.97334"><ele>428</ele><time>2011-03-22T17:44:39Z</time></trkpt><trkpt lat="48.93026" lon="10.97321"><ele>428</ele><time>2011-03-22T17:44:42Z</time></trkpt><trkpt lat="48.93031" lon="10.97309"><ele>428</ele><time>2011-03-22T17:44:45Z</time></trkpt><trkpt lat="48.93033" lon="10.97301"><ele>428</ele><time>2011-03-22T17:44:47Z</time></trkpt><trkpt lat="48.93037" lon="10.97288"><ele>428</ele><time>2011-03-22T17:44:51Z</time></trkpt><trkpt lat="48.93041" lon="10.97279"><ele>428</ele><time>2011-03-22T17:44:54Z</time></trkpt><trkpt lat="48.93051" lon="10.97263"><ele>427</ele><time>2011-03-22T17:45:00Z</time></trkpt><trkpt lat="48.93055" lon="10.97258"><ele>427</ele><time>2011-03-22T17:45:02Z</time></trkpt><trkpt lat="48.93058" lon="10.97252"><ele>426</ele><time>2011-03-22T17:45:04Z</time></trkpt><trkpt lat="48.93063" lon="10.97242"><ele>425</ele><time>2011-03-22T17:45:08Z</time></trkpt><trkpt lat="48.93066" lon="10.97240"><ele>425</ele><time>2011-03-22T17:45:10Z</time></trkpt><trkpt lat="48.93071" lon="10.97236"><ele>424</ele><time>2011-03-22T17:45:14Z</time></trkpt><trkpt lat="48.93077" lon="10.97236"><ele>423</ele><time>2011-03-22T17:45:18Z</time></trkpt><trkpt lat="48.93082" lon="10.97240"><ele>422</ele><time>2011-03-22T17:45:21Z</time></trkpt><trkpt lat="48.93094" lon="10.97246"><ele>421</ele><time>2011-03-22T17:45:27Z</time></trkpt><trkpt lat="48.93101" lon="10.97248"><ele>420</ele><time>2011-03-22T17:45:30Z</time></trkpt><trkpt lat="48.93114" lon="10.97254"><ele>419</ele><time>2011-03-22T17:45:36Z</time></trkpt><trkpt lat="48.93119" lon="10.97259"><ele>419</ele><time>2011-03-22T17:45:38Z</time></trkpt><trkpt lat="48.93124" lon="10.97263"><ele>419</ele><time>2011-03-22T17:45:40Z</time></trkpt><trkpt lat="48.93141" lon="10.97276"><ele>418</ele><time>2011-03-22T17:45:47Z</time></trkpt><trkpt lat="48.93146" lon="10.97279"><ele>418</ele><time>2011-03-22T17:45:49Z</time></trkpt><trkpt lat="48.93152" lon="10.97280"><ele>417</ele><time>2011-03-22T17:45:51Z</time></trkpt><trkpt lat="48.93155" lon="10.97281"><ele>417</ele><time>2011-03-22T17:45:52Z</time></trkpt><trkpt lat="48.93164" lon="10.97282"><ele>417</ele><time>2011-03-22T17:45:55Z</time></trkpt><trkpt lat="48.93172" lon="10.97284"><ele>417</ele><time>2011-03-22T17:45:58Z</time></trkpt><trkpt lat="48.93176" lon="10.97286"><ele>417</ele><time>2011-03-22T17:46:00Z</time></trkpt><trkpt lat="48.93182" lon="10.97282"><ele>417</ele><time>2011-03-22T17:46:09Z</time></trkpt><trkpt lat="48.93186" lon="10.97288"><ele>417</ele><time>2011-03-22T17:46:13Z</time></trkpt><trkpt lat="48.93189" lon="10.97292"><ele>417</ele><time>2011-03-22T17:46:16Z</time></trkpt><trkpt lat="48.93193" lon="10.97295"><ele>417</ele><time>2011-03-22T17:46:18Z</time></trkpt><trkpt lat="48.93197" lon="10.97298"><ele>417</ele><time>2011-03-22T17:46:21Z</time></trkpt><trkpt lat="48.93203" lon="10.97303"><ele>417</ele><time>2011-03-22T17:46:24Z</time></trkpt><trkpt lat="48.93205" lon="10.97305"><ele>417</ele><time>2011-03-22T17:46:25Z</time></trkpt><trkpt lat="48.93211" lon="10.97309"><ele>418</ele><time>2011-03-22T17:46:28Z</time></trkpt><trkpt lat="48.93217" lon="10.97312"><ele>418</ele><time>2011-03-22T17:46:31Z</time></trkpt><trkpt lat="48.93236" lon="10.97323"><ele>418</ele><time>2011-03-22T17:46:41Z</time></trkpt><trkpt lat="48.93247" lon="10.97331"><ele>419</ele><time>2011-03-22T17:46:46Z</time></trkpt><trkpt lat="48.93251" lon="10.97336"><ele>419</ele><time>2011-03-22T17:46:48Z</time></trkpt><trkpt lat="48.93256" lon="10.97339"><ele>418</ele><time>2011-03-22T17:46:50Z</time></trkpt><trkpt lat="48.93296" lon="10.97362"><ele>418</ele><time>2011-03-22T17:47:08Z</time></trkpt><trkpt lat="48.93308" lon="10.97372"><ele>418</ele><time>2011-03-22T17:47:17Z</time></trkpt><trkpt lat="48.93308" lon="10.97372"><ele>418</ele><time>2011-03-22T17:47:17Z</time></trkpt></trkseg></trk></gpx>